createdAt,value
2023-05-19T00:01:48.509Z,1.00
2023-05-19T00:04:15.497Z,1.00
2023-05-19T00:06:42.566Z,0.80
2023-05-19T00:09:10.217Z,0.90
2023-05-19T00:11:39.100Z,1.00
2023-05-19T00:14:08.010Z,0.90
2023-05-19T00:16:35.116Z,0.82
2023-05-19T00:19:04.053Z,0.90
2023-05-19T00:21:32.185Z,1.00
2023-05-19T00:23:59.278Z,0.82
2023-05-19T00:26:28.181Z,1.02
2023-05-19T00:28:59.796Z,0.90
2023-05-19T00:31:26.539Z,1.00
2023-05-19T00:33:53.330Z,0.90
2023-05-19T00:36:20.009Z,1.00
2023-05-19T00:38:46.579Z,0.90
2023-05-19T00:41:13.172Z,0.90
2023-05-19T00:43:39.874Z,0.80
2023-05-19T00:46:07.450Z,1.00
2023-05-19T00:48:34.279Z,1.00
2023-05-19T00:51:05.285Z,1.00
2023-05-19T00:53:35.459Z,0.90
2023-05-19T00:56:03.170Z,0.90
2023-05-19T00:58:30.903Z,0.90
2023-05-19T01:01:07.316Z,0.80
2023-05-19T01:03:35.603Z,0.80
2023-05-19T01:06:06.355Z,1.02
2023-05-19T01:08:33.955Z,0.85
2023-05-19T01:11:00.883Z,0.90
2023-05-19T01:13:28.583Z,0.90
2023-05-19T01:16:00.036Z,0.95
2023-05-19T01:18:35.731Z,1.00
2023-05-19T01:21:30.426Z,0.90
2023-05-19T01:24:18.271Z,1.00
2023-05-19T01:26:59.500Z,0.90
2023-05-19T01:30:03.424Z,0.93
2023-05-19T01:32:30.731Z,0.93
2023-05-19T01:34:58.357Z,0.90
2023-05-19T01:37:25.813Z,0.90
2023-05-19T01:39:52.357Z,0.90
2023-05-19T01:42:20.183Z,1.00
2023-05-19T01:44:46.994Z,0.88
2023-05-19T01:47:14.396Z,0.90
2023-05-19T01:49:42.053Z,0.80
2023-05-19T01:52:09.124Z,1.00
2023-05-19T01:54:35.737Z,0.90
2023-05-19T01:57:08.245Z,1.00
2023-05-19T01:59:41.343Z,0.90
2023-05-19T02:02:26.998Z,1.02
2023-05-19T02:07:32.466Z,1.00
2023-05-19T02:10:07.242Z,0.93
2023-05-19T02:12:40.109Z,0.90
2023-05-19T02:15:10.034Z,0.90
2023-05-19T02:17:41.394Z,0.80
2023-05-19T02:20:10.583Z,0.80
2023-05-19T02:22:37.156Z,0.90
2023-05-19T02:25:03.846Z,0.82
2023-05-19T02:27:33.835Z,0.90
2023-05-19T02:30:03.419Z,0.90
2023-05-19T02:32:31.518Z,1.00
2023-05-19T02:34:58.098Z,0.80
2023-05-19T02:37:25.213Z,0.88
2023-05-19T02:39:51.769Z,0.95
2023-05-19T02:42:18.679Z,1.20
2023-05-19T02:44:45.305Z,0.82
2023-05-19T02:47:13.076Z,0.90
2023-05-19T02:49:40.062Z,0.93
2023-05-19T02:52:07.000Z,0.90
2023-05-19T02:54:34.370Z,1.00
2023-05-19T02:57:01.416Z,0.90
2023-05-19T02:59:28.053Z,1.10
2023-05-19T03:02:00.123Z,0.90
2023-05-19T03:04:27.479Z,0.90
2023-05-19T03:06:57.296Z,0.93
2023-05-19T03:09:23.950Z,0.90
2023-05-19T03:11:50.519Z,0.95
2023-05-19T03:14:18.590Z,0.90
2023-05-19T03:16:45.326Z,0.90
2023-05-19T03:19:12.433Z,0.90
2023-05-19T03:21:39.208Z,1.00
2023-05-19T03:24:06.647Z,1.00
2023-05-19T03:26:33.366Z,0.90
2023-05-19T03:29:00.015Z,0.90
2023-05-19T03:31:26.833Z,0.90
2023-05-19T03:33:53.770Z,0.90
2023-05-19T03:36:22.199Z,0.80
2023-05-19T03:38:48.880Z,0.80
2023-05-19T03:41:15.881Z,0.98
2023-05-19T03:43:42.481Z,0.90
2023-05-19T03:46:09.917Z,0.90
2023-05-19T03:48:55.036Z,0.90
2023-05-19T03:51:38.829Z,0.98
2023-05-19T03:54:17.978Z,1.00
2023-05-19T03:56:44.568Z,0.95
2023-05-19T03:59:12.269Z,0.80
2023-05-19T04:01:38.791Z,0.98
2023-05-19T04:04:05.721Z,1.00
2023-05-19T04:06:32.336Z,0.90
2023-05-19T04:08:58.943Z,0.90
2023-05-19T04:11:25.568Z,1.00
2023-05-19T04:13:52.102Z,1.00
2023-05-19T04:16:18.789Z,1.00
2023-05-19T04:18:46.396Z,0.82
2023-05-19T04:21:13.355Z,0.82
2023-05-19T04:23:39.917Z,0.85
2023-05-19T04:26:06.865Z,0.90
2023-05-19T04:28:36.648Z,0.90
2023-05-19T04:31:03.489Z,0.90
2023-05-19T04:33:30.154Z,0.90
2023-05-19T04:35:58.324Z,0.88
2023-05-19T04:38:24.810Z,0.90
2023-05-19T04:40:52.001Z,0.90
2023-05-19T04:43:19.372Z,0.85
2023-05-19T04:45:46.555Z,0.88
2023-05-19T04:48:13.916Z,0.90
2023-05-19T04:50:42.218Z,0.90
2023-05-19T04:53:09.666Z,0.80
2023-05-19T04:55:37.647Z,0.90
2023-05-19T04:58:05.016Z,0.82
2023-05-19T05:00:33.026Z,0.80
2023-05-19T05:03:07.187Z,0.80
2023-05-19T05:05:34.982Z,0.80
2023-05-19T05:08:01.522Z,0.88
2023-05-19T05:10:32.086Z,1.00
2023-05-19T05:12:59.213Z,0.90
2023-05-19T05:15:28.776Z,0.80
2023-05-19T05:17:57.858Z,0.75
2023-05-19T05:20:25.151Z,0.80
2023-05-19T05:22:52.032Z,0.80
2023-05-19T05:25:19.773Z,0.90
2023-05-19T05:27:46.416Z,1.02
2023-05-19T05:30:13.896Z,0.90
2023-05-19T05:32:41.562Z,1.00
2023-05-19T05:35:16.085Z,0.90
2023-05-19T05:37:42.881Z,0.90
2023-05-19T05:40:09.749Z,0.80
2023-05-19T05:42:36.473Z,0.95
2023-05-19T05:45:03.116Z,0.95
2023-05-19T05:47:30.125Z,0.90
2023-05-19T05:49:57.037Z,0.90
2023-05-19T05:52:27.795Z,0.90
2023-05-19T05:54:55.042Z,1.00
2023-05-19T05:57:23.164Z,0.90
2023-05-19T05:59:50.762Z,0.90
2023-05-19T06:02:17.936Z,0.98
2023-05-19T06:04:44.564Z,0.90
2023-05-19T06:07:11.120Z,0.85
2023-05-19T06:09:38.745Z,0.82
2023-05-19T06:12:07.036Z,1.15
2023-05-19T06:14:38.922Z,0.88
2023-05-19T06:19:46.151Z,0.90
2023-05-19T06:22:12.702Z,0.93
2023-05-19T06:24:39.699Z,1.63
2023-05-19T06:27:08.519Z,0.80
2023-05-19T06:29:35.103Z,0.90
2023-05-19T06:32:04.435Z,1.00
2023-05-19T06:34:31.241Z,5.43
2023-05-19T06:36:58.111Z,6.30
2023-05-19T06:39:24.980Z,7.75
2023-05-19T06:41:51.599Z,6.82
2023-05-19T06:44:40.932Z,6.70
2023-05-19T06:47:11.191Z,57.45
2023-05-19T06:49:38.116Z,9.23
2023-05-19T06:52:04.913Z,19.45
2023-05-19T06:54:31.582Z,43.25
2023-05-19T06:56:58.124Z,55.03
2023-05-19T06:59:24.685Z,82.60
2023-05-19T07:01:51.458Z,31.10
2023-05-19T07:04:18.363Z,15.02
2023-05-19T07:06:44.902Z,52.65
2023-05-19T07:09:11.579Z,21.17
2023-05-19T07:11:39.575Z,27.77
2023-05-19T07:14:06.663Z,25.20
2023-05-19T07:16:33.301Z,10.23
2023-05-19T07:18:59.955Z,80.95
2023-05-19T07:21:26.569Z,84.15
2023-05-19T07:23:53.157Z,92.13
2023-05-19T07:26:19.729Z,98.93
2023-05-19T07:28:46.300Z,111.88
2023-05-19T07:31:12.882Z,109.45
2023-05-19T07:33:39.463Z,97.03
2023-05-19T07:36:06.195Z,102.03
2023-05-19T07:38:34.748Z,99.45
2023-05-19T07:41:02.115Z,102.50
2023-05-19T07:43:28.825Z,99.68
2023-05-19T07:45:56.390Z,99.07
2023-05-19T07:48:25.583Z,101.10
2023-05-19T07:50:52.745Z,100.85
2023-05-19T07:53:19.860Z,83.50
2023-05-19T07:55:46.436Z,98.53
2023-05-19T07:58:13.008Z,100.82
2023-05-19T08:00:39.591Z,95.53
2023-05-19T08:03:07.844Z,101.57
2023-05-19T08:05:35.188Z,108.75
2023-05-19T08:08:02.988Z,93.68
2023-05-19T08:12:56.036Z,100.72
2023-05-19T08:15:22.578Z,102.60
2023-05-19T08:17:49.213Z,102.05
2023-05-19T08:20:15.970Z,95.32
2023-05-19T08:22:42.842Z,97.28
2023-05-19T08:25:09.593Z,97.00
2023-05-19T08:27:36.792Z,100.50
2023-05-19T08:30:03.478Z,79.57
2023-05-19T08:32:30.083Z,90.05
2023-05-19T08:34:56.689Z,89.68
2023-05-19T08:37:23.245Z,89.70
2023-05-19T08:39:49.845Z,85.18
2023-05-19T08:42:16.464Z,89.70
2023-05-19T08:44:43.978Z,88.63
2023-05-19T08:47:13.972Z,89.60
2023-05-19T08:49:47.348Z,81.68
2023-05-19T08:52:42.388Z,100.50
2023-05-19T08:55:11.557Z,87.00
2023-05-19T08:57:38.622Z,84.30
2023-05-19T09:00:11.726Z,85.68
2023-05-19T09:02:50.297Z,88.65
2023-05-19T09:05:25.331Z,87.97
2023-05-19T09:07:51.927Z,87.07
2023-05-19T09:10:18.488Z,84.50
2023-05-19T09:12:47.450Z,86.15
2023-05-19T09:15:17.524Z,89.60
2023-05-19T09:17:45.881Z,90.07
2023-05-19T09:20:12.971Z,87.78
2023-05-19T09:22:47.216Z,91.97
2023-05-19T09:25:20.863Z,91.40
2023-05-19T09:27:48.653Z,92.43
2023-05-19T09:30:18.441Z,89.72
2023-05-19T09:32:47.155Z,93.72
2023-05-19T09:35:13.916Z,67.03
2023-05-19T09:37:41.437Z,86.55
2023-05-19T09:40:11.075Z,93.53
2023-05-19T09:42:38.777Z,93.43
2023-05-19T09:45:06.809Z,92.60
2023-05-19T09:47:40.020Z,91.97
2023-05-19T09:50:10.952Z,86.57
2023-05-19T09:52:43.785Z,90.32
2023-05-19T09:55:12.665Z,88.30
2023-05-19T09:57:40.217Z,93.38
2023-05-19T10:00:19.560Z,93.88
2023-05-19T10:02:47.239Z,74.63
2023-05-19T10:07:48.619Z,65.38
2023-05-19T10:10:15.749Z,67.22
2023-05-19T10:12:42.701Z,61.65
2023-05-19T10:15:13.362Z,69.63
2023-05-19T10:17:41.176Z,76.82
2023-05-19T10:22:40.343Z,63.42
2023-05-19T10:27:36.811Z,69.10
2023-05-19T10:30:12.414Z,87.03
2023-05-19T10:32:41.374Z,61.78
2023-05-19T10:35:50.909Z,71.97
2023-05-19T10:38:43.091Z,72.25
2023-05-19T10:41:18.674Z,54.72
2023-05-19T10:44:30.176Z,83.93
2023-05-19T10:46:57.272Z,17.10
2023-05-19T10:49:24.258Z,1.13
2023-05-19T10:51:52.257Z,1.40
2023-05-19T10:54:39.119Z,1.23
2023-05-19T10:57:07.041Z,1.10
2023-05-19T10:59:35.618Z,1.30
2023-05-19T11:02:08.917Z,1.20
2023-05-19T11:04:53.563Z,1.20
2023-05-19T11:07:21.712Z,1.20
2023-05-19T11:09:52.263Z,1.02
2023-05-19T11:12:24.779Z,1.00
2023-05-19T11:14:55.031Z,1.08
2023-05-19T11:17:22.366Z,1.10
2023-05-19T11:19:54.836Z,1.20
2023-05-19T11:22:27.305Z,1.30
2023-05-19T11:24:57.251Z,1.30
2023-05-19T11:27:31.815Z,1.38
2023-05-19T11:30:00.530Z,1.30
2023-05-19T11:32:31.222Z,1.15
2023-05-19T11:34:58.018Z,1.40
2023-05-19T11:37:24.721Z,1.23
2023-05-19T11:39:52.223Z,1.17
2023-05-19T11:42:19.294Z,1.35
2023-05-19T11:44:46.412Z,1.30
2023-05-19T11:47:14.001Z,1.10
2023-05-19T11:49:45.296Z,1.20
2023-05-19T11:52:11.992Z,1.30
2023-05-19T11:54:39.340Z,1.20
2023-05-19T11:57:06.060Z,1.50
2023-05-19T11:59:35.615Z,1.30
2023-05-19T12:02:27.789Z,1.30
2023-05-19T12:04:54.932Z,1.30
2023-05-19T12:07:25.087Z,1.27
2023-05-19T12:09:52.318Z,1.30
2023-05-19T12:12:22.770Z,1.33
2023-05-19T12:14:53.327Z,1.42
2023-05-19T12:17:21.288Z,1.40
2023-05-19T12:19:48.974Z,1.40
2023-05-19T12:22:16.593Z,1.40
2023-05-19T12:24:44.306Z,1.23
2023-05-19T12:29:41.047Z,1.50
2023-05-19T12:32:08.429Z,1.30
2023-05-19T12:34:38.801Z,1.00
2023-05-19T12:37:06.178Z,1.30
2023-05-19T12:39:32.789Z,1.30
2023-05-19T12:42:09.539Z,1.25
2023-05-19T12:44:42.741Z,1.13
2023-05-19T12:47:09.289Z,1.30
2023-05-19T12:49:35.917Z,1.33
2023-05-19T12:52:11.824Z,1.40
2023-05-19T12:54:40.964Z,1.48
2023-05-19T12:57:07.683Z,1.27
2023-05-19T12:59:38.705Z,1.30
2023-05-19T13:02:06.835Z,1.35
2023-05-19T13:04:33.533Z,1.45
2023-05-19T13:07:00.065Z,1.40
2023-05-19T13:09:27.879Z,1.00
2023-05-19T13:11:54.764Z,1.30
2023-05-19T13:14:21.809Z,1.23
2023-05-19T13:16:48.952Z,1.30
2023-05-19T13:19:25.262Z,1.35
2023-05-19T13:21:52.767Z,1.30
2023-05-19T13:24:19.399Z,1.33
2023-05-19T13:26:46.004Z,1.30
2023-05-19T13:29:12.706Z,1.30
2023-05-19T13:31:39.413Z,1.30
2023-05-19T13:34:05.973Z,1.40
2023-05-19T13:36:36.480Z,1.40
2023-05-19T13:39:03.262Z,1.30
2023-05-19T13:41:29.855Z,1.10
2023-05-19T13:43:58.850Z,1.15
2023-05-19T13:46:36.667Z,1.40
2023-05-19T13:49:10.438Z,1.13
2023-05-19T13:51:37.658Z,1.10
2023-05-19T13:54:04.952Z,1.10
2023-05-19T13:56:31.745Z,1.27
2023-05-19T13:58:58.496Z,1.30
2023-05-19T14:01:29.483Z,1.17
2023-05-19T14:03:58.444Z,1.10
2023-05-19T14:06:25.087Z,1.30
2023-05-19T14:08:51.613Z,1.10
2023-05-19T14:11:25.207Z,1.02
2023-05-19T14:13:52.860Z,1.20
2023-05-19T14:18:47.482Z,1.00
2023-05-19T14:21:14.122Z,1.30
2023-05-19T14:23:40.745Z,1.30
2023-05-19T14:26:07.354Z,1.20
2023-05-19T14:28:34.006Z,1.35
2023-05-19T14:31:00.659Z,1.10
2023-05-19T14:33:27.253Z,1.38
2023-05-19T14:35:53.993Z,1.33
2023-05-19T14:38:20.641Z,1.20
2023-05-19T14:40:48.464Z,1.50
2023-05-19T14:43:15.063Z,1.40
2023-05-19T14:45:44.154Z,1.02
2023-05-19T14:48:13.428Z,1.27
2023-05-19T14:50:40.039Z,1.10
2023-05-19T14:53:06.560Z,1.10
2023-05-19T14:55:33.112Z,1.20
2023-05-19T14:57:59.712Z,1.30
2023-05-19T15:00:26.908Z,1.20
2023-05-19T15:02:54.074Z,1.50
2023-05-19T15:05:20.735Z,1.30
2023-05-19T15:07:47.263Z,1.17
2023-05-19T15:10:13.800Z,1.40
2023-05-19T15:12:40.441Z,1.30
2023-05-19T15:15:07.661Z,1.10
2023-05-19T15:17:34.255Z,1.10
2023-05-19T15:20:00.979Z,1.10
2023-05-19T15:22:27.640Z,1.33
2023-05-19T15:24:55.305Z,1.00
2023-05-19T15:27:22.474Z,1.35
2023-05-19T15:29:49.775Z,1.35
2023-05-19T15:32:16.352Z,1.30
2023-05-19T15:34:42.975Z,1.25
2023-05-19T15:37:09.608Z,1.30
2023-05-19T15:39:36.111Z,1.20
2023-05-19T15:42:02.691Z,1.23
2023-05-19T15:44:29.997Z,1.13
2023-05-19T15:46:56.519Z,1.40
2023-05-19T15:49:25.035Z,1.30
2023-05-19T15:51:51.693Z,1.50
2023-05-19T15:54:18.219Z,1.40
2023-05-19T15:56:44.752Z,1.15
2023-05-19T15:59:11.245Z,1.40
2023-05-19T16:01:37.838Z,1.30
2023-05-19T16:04:04.680Z,1.48
2023-05-19T16:06:31.613Z,1.30
2023-05-19T16:08:58.178Z,1.30
2023-05-19T16:11:24.776Z,1.10
2023-05-19T16:13:51.320Z,1.30
2023-05-19T16:16:18.775Z,1.20
2023-05-19T16:18:45.507Z,1.40
2023-05-19T16:21:12.137Z,1.30
2023-05-19T16:23:38.679Z,1.30
2023-05-19T16:26:05.323Z,1.40
2023-05-19T16:28:32.443Z,1.42
2023-05-19T16:31:00.159Z,1.50
2023-05-19T16:33:27.412Z,1.30
2023-05-19T16:35:54.030Z,1.45
2023-05-19T16:38:20.715Z,1.50
2023-05-19T16:40:47.256Z,1.38
2023-05-19T16:43:13.838Z,1.13
2023-05-19T16:45:40.599Z,1.50
2023-05-19T16:48:07.183Z,1.30
2023-05-19T16:50:34.033Z,1.00
2023-05-19T16:53:00.922Z,1.20
2023-05-19T16:55:27.433Z,1.40
2023-05-19T16:57:53.971Z,1.38
2023-05-19T17:00:20.665Z,1.30
2023-05-19T17:02:47.366Z,1.20
2023-05-19T17:05:14.091Z,1.40
2023-05-19T17:07:40.606Z,1.30
2023-05-19T17:10:07.651Z,1.25
2023-05-19T17:12:34.312Z,1.27
2023-05-19T17:15:01.175Z,1.30
2023-05-19T17:17:27.730Z,1.45
2023-05-19T17:19:54.295Z,1.05
2023-05-19T17:22:20.885Z,1.30
2023-05-19T17:24:47.451Z,1.30
2023-05-19T17:27:15.045Z,1.10
2023-05-19T17:32:08.289Z,1.30
2023-05-19T17:34:34.961Z,1.13
2023-05-19T17:37:01.553Z,1.52
2023-05-19T17:39:28.369Z,1.30
2023-05-19T17:41:54.950Z,1.20
2023-05-19T17:44:21.522Z,1.52
2023-05-19T17:46:48.555Z,1.20
2023-05-19T17:49:15.731Z,1.02
2023-05-19T17:51:42.476Z,1.45
2023-05-19T17:54:09.173Z,1.00
2023-05-19T17:56:37.442Z,1.30
2023-05-19T17:59:04.111Z,1.13
2023-05-19T18:01:30.973Z,1.33
2023-05-19T18:03:57.860Z,1.17
2023-05-19T18:06:24.922Z,1.30
2023-05-19T18:08:52.650Z,1.20
2023-05-19T18:13:45.955Z,1.20
2023-05-19T18:16:12.887Z,1.15
2023-05-19T18:18:43.212Z,1.40
2023-05-19T18:21:14.309Z,1.30
2023-05-19T18:23:41.442Z,1.20
2023-05-19T18:26:07.998Z,1.30
2023-05-19T18:28:35.625Z,1.30
2023-05-19T18:31:05.980Z,1.10
2023-05-19T18:33:33.221Z,1.13
2023-05-19T18:35:59.834Z,1.20
2023-05-19T18:38:26.408Z,1.40
2023-05-19T18:40:53.114Z,1.30
2023-05-19T18:43:19.662Z,1.02
2023-05-19T18:45:49.178Z,1.08
2023-05-19T18:48:16.076Z,1.00
2023-05-19T18:50:44.539Z,1.30
2023-05-19T18:53:11.763Z,1.13
2023-05-19T18:55:38.653Z,1.30
2023-05-19T18:58:06.115Z,1.25
2023-05-19T19:00:33.116Z,1.17
2023-05-19T19:03:00.032Z,1.13
2023-05-19T19:05:26.693Z,1.30
2023-05-19T19:07:53.412Z,1.10
2023-05-19T19:10:20.061Z,1.30
2023-05-19T19:12:46.662Z,1.20
2023-05-19T19:15:13.227Z,1.00
2023-05-19T19:17:40.118Z,1.00
2023-05-19T19:20:08.175Z,1.17
2023-05-19T19:22:34.791Z,1.20
2023-05-19T19:25:01.328Z,1.20
2023-05-19T19:27:31.036Z,1.20
2023-05-19T19:29:58.608Z,1.20
2023-05-19T19:32:25.890Z,1.13
2023-05-19T19:34:53.298Z,1.10
2023-05-19T19:37:19.865Z,1.08
2023-05-19T19:39:46.717Z,1.30
2023-05-19T19:42:13.375Z,1.00
2023-05-19T19:44:39.987Z,1.13
2023-05-19T19:47:06.825Z,1.30
2023-05-19T19:49:33.778Z,1.30
2023-05-19T19:52:00.319Z,0.98
2023-05-19T19:54:26.861Z,1.15
2023-05-19T19:56:53.504Z,1.00
2023-05-19T19:59:20.063Z,1.00
2023-05-19T20:01:46.693Z,1.30
2023-05-19T20:04:13.445Z,1.23
2023-05-19T20:06:40.119Z,1.05
2023-05-19T20:09:06.868Z,1.27
2023-05-19T20:11:33.465Z,1.13
2023-05-19T20:14:00.033Z,1.30
2023-05-19T20:16:26.847Z,1.20
2023-05-19T20:18:53.529Z,1.27
2023-05-19T20:21:20.097Z,1.10
2023-05-19T20:23:46.662Z,1.30
2023-05-19T20:26:13.713Z,1.10
2023-05-19T20:28:40.627Z,1.38
2023-05-19T20:31:07.458Z,1.20
2023-05-19T20:33:34.869Z,1.25
2023-05-19T20:36:01.410Z,1.15
2023-05-19T20:38:28.254Z,1.02
2023-05-19T20:40:54.841Z,1.00
2023-05-19T20:43:21.569Z,1.10
2023-05-19T20:45:48.169Z,1.20
2023-05-19T20:48:17.864Z,1.00
2023-05-19T20:50:44.537Z,1.25
2023-05-19T20:53:11.311Z,1.10
2023-05-19T20:55:38.740Z,1.10
2023-05-19T20:58:05.534Z,1.05
2023-05-19T21:00:32.512Z,1.02
2023-05-19T21:02:59.755Z,1.38
2023-05-19T21:05:26.464Z,1.00
2023-05-19T21:07:53.097Z,1.10
2023-05-19T21:10:19.720Z,1.23
2023-05-19T21:12:46.734Z,1.27
2023-05-19T21:15:13.653Z,1.17
2023-05-19T21:17:40.468Z,1.10
2023-05-19T21:23:01.852Z,1.02
2023-05-19T21:25:28.773Z,1.20
2023-05-19T21:27:55.987Z,1.10
2023-05-19T21:30:23.503Z,1.10
2023-05-19T21:32:50.381Z,1.13
2023-05-19T21:41:02.310Z,1.10
2023-05-19T21:43:28.876Z,1.30
2023-05-19T21:45:55.454Z,1.30
2023-05-19T21:48:22.291Z,1.15
2023-05-19T21:50:55.446Z,1.20
2023-05-19T21:53:22.561Z,1.20
2023-05-19T21:55:49.483Z,1.20
2023-05-19T21:58:16.177Z,1.20
2023-05-19T22:00:43.366Z,1.00
2023-05-19T22:03:09.929Z,1.02
2023-05-19T22:05:38.057Z,1.15
2023-05-19T22:08:04.779Z,1.13
2023-05-19T22:10:31.772Z,1.02
2023-05-19T22:12:58.869Z,1.13
2023-05-19T22:15:26.625Z,1.13
2023-05-19T22:17:53.259Z,1.08
2023-05-19T22:20:20.008Z,1.00
2023-05-19T22:22:46.538Z,1.00
2023-05-19T22:25:13.146Z,1.10
2023-05-19T22:27:39.807Z,1.00
2023-05-19T22:30:07.341Z,1.30
2023-05-19T22:32:35.085Z,1.02
2023-05-19T22:35:01.738Z,1.30
2023-05-19T22:37:31.200Z,1.05
2023-05-19T22:39:57.725Z,1.02
2023-05-19T22:42:24.416Z,1.00
2023-05-19T22:44:51.137Z,1.20
2023-05-19T22:47:17.673Z,1.33
2023-05-19T22:49:44.289Z,1.30
2023-05-19T22:52:11.440Z,1.00
2023-05-19T22:54:38.076Z,0.98
2023-05-19T22:57:05.174Z,1.10
2023-05-19T22:59:31.913Z,1.00
2023-05-19T23:01:58.474Z,1.00
2023-05-19T23:04:25.165Z,0.98
2023-05-19T23:06:51.897Z,0.93
2023-05-19T23:09:18.520Z,1.00
2023-05-19T23:11:45.339Z,1.10
2023-05-19T23:14:12.021Z,1.10
2023-05-19T23:16:38.641Z,1.30
2023-05-19T23:19:05.521Z,1.08
2023-05-19T23:21:32.839Z,1.13
2023-05-19T23:23:59.951Z,0.90
2023-05-19T23:26:27.362Z,1.10
2023-05-19T23:28:54.104Z,1.00
2023-05-19T23:31:20.711Z,1.20
2023-05-19T23:33:47.272Z,1.13
2023-05-19T23:36:14.044Z,1.27
2023-05-19T23:38:40.622Z,1.00
2023-05-19T23:41:07.181Z,1.00
2023-05-19T23:43:33.786Z,1.00
2023-05-19T23:46:00.511Z,1.05
2023-05-19T23:48:28.928Z,1.05
2023-05-19T23:50:55.461Z,1.20
2023-05-19T23:53:22.066Z,1.00
2023-05-19T23:55:48.600Z,1.10
2023-05-19T23:58:15.970Z,1.00
